createdAt,value
2022-08-16T00:01:22.217Z,48.70
2022-08-16T00:03:52.612Z,48.67
2022-08-16T00:06:20.632Z,49.07
2022-08-16T00:08:50.279Z,48.84
2022-08-16T00:11:20.767Z,48.53
2022-08-16T00:13:53.378Z,48.56
2022-08-16T00:17:01.326Z,48.74
2022-08-16T00:19:13.744Z,48.25
2022-08-16T00:21:43.287Z,48.43
2022-08-16T00:24:13.289Z,48.88
2022-08-16T00:26:59.402Z,48.69
2022-08-16T00:29:29.730Z,48.73
2022-08-16T00:31:59.642Z,48.22
2022-08-16T00:34:44.220Z,48.72
2022-08-16T00:37:18.532Z,48.40
2022-08-16T00:39:57.237Z,48.85
2022-08-16T00:42:29.688Z,49.07
2022-08-16T00:45:06.324Z,49.18
2022-08-16T00:47:37.077Z,49.06
2022-08-16T00:50:08.203Z,49.27
2022-08-16T00:52:50.420Z,49.37
2022-08-16T00:55:23.310Z,49.17
2022-08-16T00:58:00.104Z,49.24
2022-08-16T01:00:29.226Z,49.05
2022-08-16T01:02:58.005Z,49.17
2022-08-16T01:05:27.088Z,49.86
2022-08-16T01:07:55.164Z,49.91
2022-08-16T01:10:32.168Z,49.67
2022-08-16T01:13:05.365Z,49.43
2022-08-16T01:15:34.363Z,49.74
2022-08-16T01:18:02.363Z,50.06
2022-08-16T01:20:32.942Z,49.66
2022-08-16T01:23:08.464Z,50.01
2022-08-16T01:25:39.844Z,50.19
2022-08-16T01:28:09.173Z,50.18
2022-08-16T01:30:39.819Z,50.29
2022-08-16T01:33:17.492Z,50.64
2022-08-16T01:35:52.551Z,50.55
2022-08-16T01:38:28.367Z,50.51
2022-08-16T01:41:01.700Z,50.08
2022-08-16T01:43:31.433Z,50.75
2022-08-16T01:46:00.325Z,50.58
2022-08-16T01:48:48.424Z,50.53
2022-08-16T01:51:17.637Z,50.53
2022-08-16T01:53:54.472Z,50.45
2022-08-16T01:56:25.479Z,50.68
2022-08-16T01:58:54.798Z,50.26
2022-08-16T02:01:23.091Z,50.58
2022-08-16T02:03:53.980Z,50.61
2022-08-16T02:06:34.230Z,49.94
2022-08-16T02:09:06.113Z,50.71
2022-08-16T02:11:42.985Z,50.21
2022-08-16T02:14:18.447Z,50.68
2022-08-16T02:16:49.619Z,50.76
2022-08-16T02:19:18.533Z,50.57
2022-08-16T02:22:08.224Z,50.67
2022-08-16T02:24:41.025Z,50.16
2022-08-16T02:27:11.449Z,50.45
2022-08-16T02:29:41.285Z,50.70
2022-08-16T02:32:51.149Z,50.33
2022-08-16T02:34:57.752Z,50.58
2022-08-16T02:37:51.378Z,50.60
2022-08-16T02:40:16.958Z,50.67
2022-08-16T02:42:48.076Z,50.35
2022-08-16T02:45:18.507Z,50.86
2022-08-16T02:48:00.979Z,50.14
2022-08-16T02:50:53.751Z,50.47
2022-08-16T02:53:23.582Z,50.94
2022-08-16T02:55:52.300Z,50.72
2022-08-16T02:58:24.858Z,50.98
2022-08-16T03:00:55.883Z,51.25
2022-08-16T03:03:24.923Z,51.27
2022-08-16T03:05:53.300Z,51.24
2022-08-16T03:08:52.647Z,50.63
2022-08-16T03:11:16.561Z,51.14
2022-08-16T03:13:47.761Z,51.23
2022-08-16T03:16:37.591Z,51.08
2022-08-16T03:19:07.518Z,51.19
2022-08-16T03:21:37.885Z,50.51
2022-08-16T03:24:29.037Z,50.48
2022-08-16T03:26:58.105Z,50.69
2022-08-16T03:29:30.182Z,50.61
2022-08-16T03:31:59.231Z,50.61
2022-08-16T03:34:27.735Z,50.64
2022-08-16T03:36:55.780Z,50.53
2022-08-16T03:39:23.813Z,50.84
2022-08-16T03:41:59.711Z,50.29
2022-08-16T03:44:40.815Z,50.24
2022-08-16T03:47:12.867Z,50.80
2022-08-16T03:49:52.001Z,50.85
2022-08-16T03:52:20.607Z,50.58
2022-08-16T03:54:53.212Z,50.70
2022-08-16T03:57:21.812Z,50.43
2022-08-16T03:59:51.854Z,50.39
2022-08-16T04:02:22.209Z,50.45
2022-08-16T04:04:50.786Z,50.29
2022-08-16T04:07:18.817Z,50.38
2022-08-16T04:09:47.125Z,50.83
2022-08-16T04:12:52.461Z,50.42
2022-08-16T04:15:07.835Z,50.76
2022-08-16T04:17:35.962Z,50.67
2022-08-16T04:20:31.103Z,50.80
2022-08-16T04:22:56.118Z,50.62
2022-08-16T04:25:24.171Z,50.67
2022-08-16T04:27:55.656Z,50.05
2022-08-16T04:30:32.233Z,50.03
2022-08-16T04:33:04.411Z,50.12
2022-08-16T04:35:34.376Z,49.96
2022-08-16T04:38:10.851Z,50.36
2022-08-16T04:40:50.038Z,50.02
2022-08-16T04:45:47.456Z,49.88
2022-08-16T04:48:32.592Z,49.92
2022-08-16T04:51:07.823Z,50.18
2022-08-16T04:53:41.508Z,50.03
2022-08-16T04:56:11.310Z,49.85
2022-08-16T04:58:45.964Z,49.85
2022-08-16T05:01:17.752Z,49.50
2022-08-16T05:04:00.454Z,49.47
2022-08-16T05:06:42.266Z,49.72
2022-08-16T05:09:13.824Z,49.82
2022-08-16T05:11:44.217Z,49.17
2022-08-16T05:14:12.031Z,49.40
2022-08-16T05:17:01.220Z,49.30
2022-08-16T05:19:35.958Z,49.55
2022-08-16T05:22:04.301Z,49.18
2022-08-16T05:24:32.676Z,49.10
2022-08-16T05:27:00.524Z,49.17
2022-08-16T05:30:00.142Z,48.78
2022-08-16T05:32:32.870Z,48.35
2022-08-16T05:35:02.468Z,48.28
2022-08-16T05:37:39.669Z,48.57
2022-08-16T05:40:09.757Z,48.73
2022-08-16T05:42:41.188Z,48.04
2022-08-16T05:45:21.378Z,48.15
2022-08-16T05:47:59.537Z,47.81
2022-08-16T05:50:34.310Z,48.13
2022-08-16T05:53:02.757Z,48.04
2022-08-16T05:55:30.833Z,48.10
2022-08-16T05:58:03.124Z,47.56
2022-08-16T06:00:31.395Z,47.78
2022-08-16T06:03:00.655Z,47.66
2022-08-16T06:05:28.674Z,46.91
2022-08-16T06:07:58.230Z,46.67
2022-08-16T06:10:32.328Z,46.86
2022-08-16T06:13:01.256Z,46.31
2022-08-16T06:15:30.677Z,46.15
2022-08-16T06:18:00.521Z,45.23
2022-08-16T06:20:35.358Z,44.85
2022-08-16T06:23:17.278Z,44.06
2022-08-16T06:25:53.270Z,43.25
2022-08-16T06:28:36.376Z,42.69
2022-08-16T06:31:05.110Z,41.35
2022-08-16T06:33:41.932Z,41.14
2022-08-16T06:36:11.700Z,40.46
2022-08-16T06:38:55.837Z,39.05
2022-08-16T06:41:27.405Z,37.81
2022-08-16T06:43:56.455Z,37.74
2022-08-16T06:46:31.658Z,37.04
2022-08-16T06:49:01.871Z,36.74
2022-08-16T06:51:45.884Z,35.22
2022-08-16T06:54:16.494Z,35.04
2022-08-16T06:56:44.517Z,33.67
2022-08-16T06:59:13.690Z,33.94
2022-08-16T07:01:55.144Z,32.44
2022-08-16T07:04:31.568Z,31.91
2022-08-16T07:07:00.401Z,30.51
2022-08-16T07:09:29.749Z,30.99
2022-08-16T07:12:03.409Z,30.76
2022-08-16T07:14:31.932Z,30.63
2022-08-16T07:17:00.214Z,29.10
2022-08-16T07:20:01.340Z,28.91
2022-08-16T07:22:38.286Z,28.43
2022-08-16T07:25:09.382Z,28.12
2022-08-16T07:27:38.297Z,26.85
2022-08-16T07:30:46.020Z,26.49
2022-08-16T07:32:56.732Z,25.88
2022-08-16T07:35:26.170Z,26.26
2022-08-16T07:37:54.302Z,25.50
2022-08-16T07:40:36.854Z,25.19
2022-08-16T07:43:10.191Z,25.86
2022-08-16T07:45:39.053Z,26.34
2022-08-16T07:48:11.592Z,25.21
2022-08-16T07:50:56.240Z,25.07
2022-08-16T07:53:28.927Z,24.57
2022-08-16T07:55:57.757Z,24.45
2022-08-16T07:58:33.967Z,23.67
2022-08-16T08:01:05.625Z,22.40
2022-08-16T08:03:41.549Z,23.58
2022-08-16T08:06:13.549Z,23.28
2022-08-16T08:08:51.380Z,22.88
2022-08-16T08:11:21.379Z,23.00
2022-08-16T08:13:50.602Z,22.64
2022-08-16T08:16:19.939Z,22.33
2022-08-16T08:18:50.512Z,21.83
2022-08-16T08:21:26.173Z,22.03
2022-08-16T08:23:57.688Z,21.10
2022-08-16T08:26:26.106Z,21.15
2022-08-16T08:29:01.100Z,21.75
2022-08-16T08:31:29.154Z,21.19
2022-08-16T08:34:00.044Z,20.94
2022-08-16T08:36:33.642Z,19.84
2022-08-16T08:39:03.161Z,19.85
2022-08-16T08:41:42.514Z,19.56
2022-08-16T08:44:29.130Z,19.04
2022-08-16T08:47:00.553Z,18.96
2022-08-16T08:49:46.501Z,18.93
2022-08-16T08:52:34.915Z,18.36
2022-08-16T08:55:10.362Z,18.21
2022-08-16T08:57:40.580Z,17.63
2022-08-16T09:00:13.891Z,17.60
2022-08-16T09:02:44.439Z,17.05
2022-08-16T09:05:15.267Z,16.66
2022-08-16T09:08:00.717Z,16.76
2022-08-16T09:10:30.335Z,16.25
2022-08-16T09:12:58.354Z,15.96
2022-08-16T09:15:26.433Z,16.06
2022-08-16T09:18:02.093Z,15.47
2022-08-16T09:20:59.938Z,15.40
2022-08-16T09:23:43.797Z,15.25
2022-08-16T09:26:45.331Z,14.91
2022-08-16T09:29:23.738Z,15.06
2022-08-16T09:31:53.851Z,14.67
2022-08-16T09:34:21.835Z,14.77
2022-08-16T09:36:49.989Z,14.57
2022-08-16T09:39:23.949Z,14.00
2022-08-16T09:41:53.687Z,14.49
2022-08-16T09:45:11.421Z,14.04
2022-08-16T09:47:11.673Z,13.87
2022-08-16T09:49:40.989Z,13.36
2022-08-16T09:52:09.532Z,12.97
2022-08-16T09:54:44.513Z,13.39
2022-08-16T09:57:13.261Z,13.20
2022-08-16T09:59:42.144Z,12.22
2022-08-16T10:02:27.234Z,11.81
2022-08-16T10:04:56.575Z,12.49
2022-08-16T10:07:24.853Z,11.49
2022-08-16T10:09:56.407Z,11.63
2022-08-16T10:12:44.212Z,12.16
2022-08-16T10:15:15.438Z,11.40
2022-08-16T10:17:45.648Z,10.64
2022-08-16T10:20:29.766Z,11.42
2022-08-16T10:23:03.534Z,11.04
2022-08-16T10:27:16.123Z,11.07
2022-08-16T10:28:32.416Z,10.58
2022-08-16T10:31:08.731Z,10.39
2022-08-16T10:33:40.561Z,10.67
2022-08-16T10:36:09.155Z,9.99
2022-08-16T10:38:41.975Z,10.19
2022-08-16T10:41:16.143Z,10.12
2022-08-16T10:43:45.348Z,10.13
2022-08-16T10:46:40.063Z,10.63
2022-08-16T10:49:06.611Z,9.76
2022-08-16T10:52:02.346Z,8.72
2022-08-16T10:54:29.193Z,9.31
2022-08-16T10:56:59.659Z,9.49
2022-08-16T10:59:39.014Z,8.92
2022-08-16T11:02:58.530Z,8.72
2022-08-16T11:05:08.920Z,8.75
2022-08-16T11:07:52.216Z,9.48
2022-08-16T11:19:05.554Z,8.57
2022-08-16T11:22:39.650Z,8.38
2022-08-16T11:24:41.216Z,9.00
2022-08-16T11:27:22.865Z,9.11
2022-08-16T11:29:55.659Z,9.84
2022-08-16T11:32:31.890Z,8.91
2022-08-16T11:35:14.961Z,8.92
2022-08-16T11:40:38.790Z,9.08
2022-08-16T11:43:10.094Z,9.27
2022-08-16T11:45:42.433Z,10.07
2022-08-16T11:48:11.066Z,11.05
2022-08-16T11:50:39.427Z,11.67
2022-08-16T11:53:08.377Z,12.47
2022-08-16T11:55:38.175Z,13.55
2022-08-16T11:58:07.350Z,13.26
2022-08-16T12:00:51.305Z,13.94
2022-08-16T12:03:34.973Z,15.05
2022-08-16T12:06:11.001Z,14.98
2022-08-16T12:08:56.524Z,15.58
2022-08-16T12:11:31.691Z,16.62
2022-08-16T12:14:00.444Z,17.03
2022-08-16T12:16:31.228Z,17.39
2022-08-16T12:19:04.363Z,17.48
2022-08-16T12:21:57.575Z,17.45
2022-08-16T12:24:21.392Z,17.78
2022-08-16T12:26:52.362Z,17.47
2022-08-16T12:29:20.690Z,17.83
2022-08-16T12:32:01.556Z,18.29
2022-08-16T12:34:50.960Z,19.21
2022-08-16T12:37:21.422Z,18.50
2022-08-16T12:40:01.658Z,18.88
2022-08-16T12:42:35.734Z,19.01
2022-08-16T12:45:06.218Z,19.22
2022-08-16T12:47:53.221Z,19.32
2022-08-16T12:50:32.989Z,18.90
2022-08-16T12:53:01.551Z,19.04
2022-08-16T12:55:33.702Z,19.04
2022-08-16T12:58:13.718Z,19.29
2022-08-16T13:00:59.090Z,19.34
2022-08-16T13:03:32.142Z,18.62
2022-08-16T13:06:02.771Z,19.06
2022-08-16T13:08:33.334Z,19.13
2022-08-16T13:11:03.837Z,19.58
2022-08-16T13:13:34.366Z,19.34
2022-08-16T13:16:15.361Z,19.17
2022-08-16T13:18:52.474Z,19.67
2022-08-16T13:21:24.439Z,19.85
2022-08-16T13:23:55.221Z,19.47
2022-08-16T13:26:26.298Z,19.86
2022-08-16T13:28:55.848Z,19.84
2022-08-16T13:31:24.611Z,19.31
2022-08-16T13:33:58.621Z,19.80
2022-08-16T13:39:17.146Z,20.64
2022-08-16T13:41:45.073Z,19.97
2022-08-16T13:44:30.899Z,19.78
2022-08-16T13:47:10.525Z,20.23
2022-08-16T13:49:38.488Z,19.96
2022-08-16T13:52:09.748Z,19.96
2022-08-16T13:54:37.677Z,20.90
2022-08-16T13:57:06.159Z,20.41
2022-08-16T13:59:34.556Z,21.00
2022-08-16T14:02:07.051Z,20.90
2022-08-16T14:04:38.220Z,21.21
2022-08-16T14:07:10.391Z,21.00
2022-08-16T14:09:38.541Z,20.82
2022-08-16T14:12:17.485Z,20.81
2022-08-16T14:14:45.933Z,20.28
2022-08-16T14:17:14.954Z,20.14
2022-08-16T14:19:46.100Z,20.53
2022-08-16T14:25:21.002Z,20.78
2022-08-16T14:27:52.548Z,20.84
2022-08-16T14:30:22.748Z,20.64
2022-08-16T14:32:51.527Z,20.16
2022-08-16T14:35:21.575Z,20.22
2022-08-16T14:37:57.631Z,20.07
2022-08-16T14:40:29.051Z,20.02
2022-08-16T14:42:57.437Z,20.88
2022-08-16T14:45:26.935Z,20.68
2022-08-16T14:47:55.273Z,20.41
2022-08-16T14:50:24.036Z,20.43
2022-08-16T14:53:13.244Z,21.03
2022-08-16T14:55:42.522Z,21.17
2022-08-16T14:58:19.665Z,20.68
2022-08-16T15:00:50.792Z,20.97
2022-08-16T15:03:21.823Z,21.01
2022-08-16T15:05:53.959Z,21.65
2022-08-16T15:08:22.032Z,21.24
2022-08-16T15:11:06.075Z,21.09
2022-08-16T15:13:35.948Z,21.54
2022-08-16T15:16:04.652Z,21.25
2022-08-16T15:18:33.566Z,21.15
2022-08-16T15:21:02.161Z,21.83
2022-08-16T15:23:33.541Z,21.80
2022-08-16T15:26:03.632Z,22.02
2022-08-16T15:28:36.776Z,21.97
2022-08-16T15:31:06.531Z,21.87
2022-08-16T15:33:43.290Z,21.96
2022-08-16T15:36:13.864Z,22.10
2022-08-16T15:38:56.176Z,22.18
2022-08-16T15:41:54.332Z,22.43
2022-08-16T15:44:25.017Z,22.69
2022-08-16T15:46:59.841Z,22.58
2022-08-16T15:49:34.738Z,22.93
2022-08-16T15:52:08.143Z,23.19
2022-08-16T15:54:52.657Z,22.82
2022-08-16T15:57:22.240Z,23.07
2022-08-16T15:59:52.693Z,23.04
2022-08-16T16:02:30.344Z,23.64
2022-08-16T16:05:00.851Z,23.51
2022-08-16T16:07:31.016Z,23.45
2022-08-16T16:09:59.545Z,23.60
2022-08-16T16:12:50.850Z,24.02
2022-08-16T16:15:18.400Z,23.61
2022-08-16T16:17:50.644Z,24.04
2022-08-16T16:20:19.464Z,24.15
2022-08-16T16:22:49.980Z,24.62
2022-08-16T16:25:18.432Z,23.92
2022-08-16T16:27:46.655Z,24.20
2022-08-16T16:30:37.968Z,24.41
2022-08-16T16:33:20.416Z,24.77
2022-08-16T16:35:55.399Z,24.46
2022-08-16T16:38:26.875Z,25.00
2022-08-16T16:40:54.914Z,25.27
2022-08-16T16:43:25.953Z,24.84
2022-08-16T16:46:01.666Z,25.09
2022-08-16T16:48:34.749Z,24.85
2022-08-16T16:51:19.677Z,25.28
2022-08-16T16:53:56.539Z,25.48
2022-08-16T16:59:21.421Z,25.05
2022-08-16T17:02:41.768Z,25.92
2022-08-16T17:04:58.539Z,26.09
2022-08-16T17:07:39.938Z,25.59
2022-08-16T17:10:10.774Z,25.78
2022-08-16T17:12:47.105Z,26.32
2022-08-16T17:15:27.880Z,26.43
2022-08-16T17:19:16.173Z,25.83
2022-08-16T17:20:56.417Z,26.26
2022-08-16T17:23:59.167Z,26.37
2022-08-16T17:26:13.872Z,26.51
2022-08-16T17:28:59.090Z,26.80
2022-08-16T17:31:43.429Z,26.82
2022-08-16T17:34:29.238Z,26.85
2022-08-16T17:36:59.545Z,27.41
2022-08-16T17:39:29.905Z,26.91
2022-08-16T17:41:58.606Z,27.88
2022-08-16T17:44:27.354Z,27.68
2022-08-16T17:46:58.220Z,27.92
2022-08-16T17:49:36.220Z,27.55
2022-08-16T17:52:05.166Z,27.97
2022-08-16T17:54:33.354Z,28.18
2022-08-16T17:57:01.825Z,28.14
2022-08-16T17:59:30.143Z,28.09
2022-08-16T18:01:58.475Z,28.24
2022-08-16T18:04:49.019Z,28.77
2022-08-16T18:07:17.283Z,28.83
2022-08-16T18:09:46.072Z,29.06
2022-08-16T18:12:54.860Z,29.01
2022-08-16T18:15:07.375Z,29.73
2022-08-16T18:17:35.684Z,29.95
2022-08-16T18:20:04.419Z,29.82
2022-08-16T18:22:34.494Z,30.39
2022-08-16T18:25:03.393Z,30.30
2022-08-16T18:27:36.879Z,30.64
2022-08-16T18:30:05.994Z,30.63
2022-08-16T18:32:35.018Z,30.83
2022-08-16T18:35:04.382Z,30.67
2022-08-16T18:37:35.049Z,31.50
2022-08-16T18:40:04.783Z,31.63
2022-08-16T18:42:34.222Z,31.39
2022-08-16T18:45:39.567Z,31.64
2022-08-16T18:48:11.838Z,32.08
2022-08-16T18:50:59.926Z,31.75
2022-08-16T18:53:36.761Z,31.93
2022-08-16T18:56:07.480Z,32.63
2022-08-16T18:58:36.311Z,32.70
2022-08-16T19:01:07.932Z,32.63
2022-08-16T19:03:38.558Z,32.73
2022-08-16T19:06:13.743Z,32.84
2022-08-16T19:08:47.272Z,33.11
2022-08-16T19:11:19.641Z,33.32
2022-08-16T19:13:49.333Z,33.26
2022-08-16T19:16:23.426Z,33.27
2022-08-16T19:18:52.481Z,33.53
2022-08-16T19:21:22.542Z,33.09
2022-08-16T19:23:58.945Z,33.93
2022-08-16T19:26:28.420Z,33.57
2022-08-16T19:29:03.654Z,33.77
2022-08-16T19:31:51.077Z,34.35
2022-08-16T19:34:19.503Z,33.90
2022-08-16T19:36:49.569Z,34.49
2022-08-16T19:39:21.057Z,34.65
2022-08-16T19:41:53.242Z,34.20
2022-08-16T19:44:22.983Z,34.71
2022-08-16T19:46:52.228Z,34.76
2022-08-16T19:49:20.927Z,34.98
2022-08-16T19:51:49.465Z,35.13
2022-08-16T19:54:20.202Z,35.26
2022-08-16T19:56:48.795Z,34.82
2022-08-16T19:59:19.778Z,34.93
2022-08-16T20:01:54.111Z,35.31
2022-08-16T20:04:24.235Z,35.74
2022-08-16T20:06:55.069Z,35.75
2022-08-16T20:09:57.167Z,35.18
2022-08-16T20:12:27.482Z,35.88
2022-08-16T20:15:00.812Z,36.09
2022-08-16T20:17:29.383Z,36.42
2022-08-16T20:19:57.809Z,36.31
2022-08-16T20:22:51.870Z,36.40
2022-08-16T20:25:17.559Z,36.12
2022-08-16T20:27:48.264Z,36.64
2022-08-16T20:30:18.575Z,36.48
2022-08-16T20:32:48.105Z,36.73
2022-08-16T20:35:22.211Z,37.42
2022-08-16T20:37:51.480Z,37.57
2022-08-16T20:40:33.288Z,37.62
2022-08-16T20:43:08.212Z,37.44
2022-08-16T20:45:38.601Z,37.56
2022-08-16T20:48:07.781Z,38.00
2022-08-16T20:50:36.887Z,38.22
2022-08-16T20:53:05.980Z,38.16
2022-08-16T20:55:35.891Z,38.15
2022-08-16T20:58:06.363Z,37.86
2022-08-16T21:00:38.282Z,38.58
2022-08-16T21:03:08.624Z,38.66
2022-08-16T21:05:37.679Z,38.42
2022-08-16T21:08:29.399Z,39.03
2022-08-16T21:10:56.515Z,38.43
2022-08-16T21:13:26.961Z,38.75
2022-08-16T21:16:02.181Z,38.30
2022-08-16T21:18:30.657Z,38.90
2022-08-16T21:20:59.077Z,38.78
2022-08-16T21:23:27.074Z,39.12
2022-08-16T21:25:58.004Z,38.59
2022-08-16T21:28:39.522Z,39.25
2022-08-16T21:31:11.271Z,39.63
2022-08-16T21:33:39.389Z,39.39
2022-08-16T21:36:07.686Z,39.31
2022-08-16T21:38:35.691Z,39.42
2022-08-16T21:41:04.013Z,39.67
2022-08-16T21:43:33.624Z,39.51
2022-08-16T21:46:01.775Z,39.40
2022-08-16T21:48:33.848Z,39.84
2022-08-16T21:51:03.767Z,39.81
2022-08-16T21:53:33.971Z,39.68
2022-08-16T21:56:02.138Z,39.68
2022-08-16T21:58:30.377Z,40.07
2022-08-16T22:00:59.700Z,40.51
2022-08-16T22:03:27.838Z,40.46
2022-08-16T22:06:11.643Z,40.04
2022-08-16T22:08:50.600Z,40.61
2022-08-16T22:11:20.208Z,40.19
2022-08-16T22:13:57.383Z,40.68
2022-08-16T22:16:28.624Z,40.57
2022-08-16T22:18:56.554Z,40.76
2022-08-16T22:21:24.478Z,40.87
2022-08-16T22:23:57.820Z,40.33
2022-08-16T22:26:30.585Z,40.50
2022-08-16T22:29:00.763Z,40.48
2022-08-16T22:31:30.216Z,40.83
2022-08-16T22:33:58.111Z,41.00
2022-08-16T22:36:28.277Z,40.52
2022-08-16T22:38:57.993Z,40.56
2022-08-16T22:41:26.599Z,40.80
2022-08-16T22:46:30.260Z,40.98
2022-08-16T22:48:58.159Z,41.30
2022-08-16T22:51:27.003Z,41.34
2022-08-16T22:53:55.359Z,41.09
2022-08-16T22:56:23.266Z,41.56
2022-08-16T22:58:51.317Z,41.44
2022-08-16T23:01:21.523Z,41.52
2022-08-16T23:03:51.309Z,41.84
2022-08-16T23:06:19.214Z,42.01
2022-08-16T23:08:47.319Z,41.81
2022-08-16T23:11:22.386Z,41.78
2022-08-16T23:13:53.788Z,41.73
2022-08-16T23:16:23.402Z,42.05
2022-08-16T23:18:58.039Z,42.01
2022-08-16T23:21:27.799Z,41.80
2022-08-16T23:23:55.748Z,42.17
2022-08-16T23:26:36.480Z,42.14
2022-08-16T23:29:13.827Z,42.08
2022-08-16T23:31:53.287Z,42.25
2022-08-16T23:34:23.095Z,42.39
2022-08-16T23:36:50.931Z,42.35
2022-08-16T23:39:26.167Z,42.51
2022-08-16T23:41:54.159Z,42.45
2022-08-16T23:44:55.431Z,42.63
2022-08-16T23:47:09.964Z,42.71
2022-08-16T23:49:58.908Z,42.73
2022-08-16T23:52:53.944Z,42.82
2022-08-16T23:55:17.570Z,42.80
2022-08-16T23:57:46.034Z,42.73
